Lakota, North Dakota
Current Conditions -  °F | °C
As of 3:55 PM on Saturday 25 Oct 2014 (Local Time) from KDVL Reporting Station
Clear Clear  
Wind Chill: 57°   Ceiling: Unl
Heat Index: 57°   Visibility: 10mi
Dew Point: 25°   Wind: 12mph
Humidity: 29%   Direction: 280°W
Pressure: 30.06"   Gusts: NA
Location:  48.04°N, 98.34°W
Report Text: KDVL 252055Z AUTO 28010KT 10SM CLR 14/M04 A3006 RMK AO1 57010
Loading
Personal Weather Stations






























Interactive Weather Map
Tropical Storm Tracking
New forecast layout! Learn more

10-Day Weather Forecast

Advertisements
Track Severe Weather on mobile